createdAt,value
2018-08-09T00:02:11.777Z,11.63
2018-08-09T00:07:08.996Z,12.65
2018-08-09T00:12:05.907Z,11.78
2018-08-09T00:17:02.816Z,11.53
2018-08-09T00:21:59.594Z,12.25
2018-08-09T00:26:56.552Z,12.05
2018-08-09T00:31:53.510Z,11.73
2018-08-09T00:36:50.282Z,12.23
2018-08-09T00:41:47.218Z,12.20
2018-08-09T00:46:43.953Z,12.13
2018-08-09T00:51:40.945Z,11.75
2018-08-09T00:56:37.687Z,12.88
2018-08-09T01:01:34.690Z,11.93
2018-08-09T01:06:31.397Z,11.78
2018-08-09T01:11:28.567Z,12.98
2018-08-09T01:16:26.425Z,12.35
2018-08-09T01:21:23.439Z,11.80
2018-08-09T01:26:20.240Z,12.37
2018-08-09T01:31:21.865Z,12.65
2018-08-09T01:36:18.593Z,12.03
2018-08-09T01:41:15.478Z,12.03
2018-08-09T01:46:12.282Z,12.60
2018-08-09T01:51:09.304Z,12.10
2018-08-09T01:56:06.059Z,12.33
2018-08-09T02:01:03.003Z,12.37
2018-08-09T02:05:59.737Z,13.10
2018-08-09T02:10:56.651Z,12.93
2018-08-09T02:15:53.862Z,12.57
2018-08-09T02:20:50.982Z,11.50
2018-08-09T02:25:47.701Z,12.87
2018-08-09T02:30:44.586Z,12.47
2018-08-09T02:35:41.323Z,12.90
2018-08-09T02:40:38.675Z,12.50
2018-08-09T02:45:35.677Z,12.63
2018-08-09T02:50:32.629Z,12.07
2018-08-09T02:55:29.561Z,13.07
2018-08-09T03:00:26.471Z,13.30
2018-08-09T03:05:23.136Z,12.80
2018-08-09T03:10:19.993Z,12.30
2018-08-09T03:15:16.742Z,13.40
2018-08-09T03:20:13.919Z,13.27
2018-08-09T03:25:10.589Z,12.98
2018-08-09T03:30:07.655Z,12.87
2018-08-09T03:35:05.080Z,13.67
2018-08-09T03:40:01.972Z,12.67
2018-08-09T03:44:58.927Z,12.57
2018-08-09T03:49:55.741Z,13.20
2018-08-09T03:54:52.952Z,12.83
2018-08-09T03:59:49.644Z,12.67
2018-08-09T04:04:46.592Z,13.80
2018-08-09T04:09:43.305Z,12.85
2018-08-09T04:14:40.699Z,12.87
2018-08-09T04:19:37.707Z,13.10
2018-08-09T04:24:34.412Z,13.40
2018-08-09T04:29:31.149Z,12.23
2018-08-09T04:34:29.160Z,12.80
2018-08-09T04:39:25.918Z,12.10
2018-08-09T04:44:23.007Z,13.13
2018-08-09T04:49:20.128Z,12.33
2018-08-09T04:54:16.874Z,10.98
2018-08-09T04:59:13.962Z,11.93
2018-08-09T05:04:10.611Z,11.27
2018-08-09T05:09:09.308Z,11.30
2018-08-09T05:14:06.094Z,12.23
2018-08-09T05:19:03.044Z,11.80
2018-08-09T05:23:59.867Z,11.75
2018-08-09T05:28:56.856Z,11.85
2018-08-09T05:33:53.685Z,11.38
2018-08-09T05:38:51.519Z,11.03
2018-08-09T05:43:48.188Z,10.68
2018-08-09T05:48:45.108Z,10.10
2018-08-09T05:53:41.857Z,9.70
2018-08-09T05:58:39.131Z,9.50
2018-08-09T06:03:35.926Z,9.28
2018-08-09T06:08:33.060Z,8.95
2018-08-09T06:13:29.881Z,8.60
2018-08-09T06:18:26.899Z,8.10
2018-08-09T06:23:23.616Z,7.47
2018-08-09T06:28:20.817Z,7.08
2018-08-09T06:33:17.645Z,6.75
2018-08-09T06:38:14.728Z,6.78
2018-08-09T06:43:11.435Z,6.45
2018-08-09T06:48:08.191Z,6.15
2018-08-09T06:53:04.937Z,5.85
2018-08-09T06:58:01.977Z,5.92
2018-08-09T07:02:58.950Z,5.55
2018-08-09T07:07:55.887Z,5.42
2018-08-09T07:12:52.991Z,5.33
2018-08-09T07:17:49.957Z,4.87
2018-08-09T07:22:47.107Z,5.30
2018-08-09T07:27:43.850Z,4.95
2018-08-09T07:32:41.614Z,4.60
2018-08-09T07:37:38.437Z,4.83
2018-08-09T07:42:35.660Z,4.70
2018-08-09T07:47:32.408Z,4.58
2018-08-09T07:52:29.463Z,4.10
2018-08-09T07:57:26.140Z,4.55
2018-08-09T08:02:23.111Z,4.37
2018-08-09T08:07:20.130Z,3.85
2018-08-09T08:12:17.128Z,4.37
2018-08-09T08:17:13.867Z,4.35
2018-08-09T08:22:10.842Z,4.22
2018-08-09T08:27:07.538Z,4.85
2018-08-09T08:32:05.187Z,4.37
2018-08-09T08:37:02.459Z,4.60
2018-08-09T08:41:59.226Z,4.40
2018-08-09T08:46:56.169Z,4.22
2018-08-09T08:51:52.861Z,4.55
2018-08-09T08:56:50.193Z,3.95
2018-08-09T09:01:46.964Z,4.12
2018-08-09T09:06:44.025Z,3.90
2018-08-09T09:11:42.451Z,3.85
2018-08-09T09:16:39.484Z,3.75
2018-08-09T09:21:36.541Z,3.92
2018-08-09T09:26:33.235Z,3.80
2018-08-09T09:31:30.261Z,3.80
2018-08-09T09:36:27.030Z,3.70
2018-08-09T09:41:24.413Z,3.50
2018-08-09T09:46:21.230Z,3.60
2018-08-09T09:51:18.188Z,3.00
2018-08-09T09:56:14.850Z,3.22
2018-08-09T10:01:17.525Z,2.98
2018-08-09T10:06:14.250Z,3.05
2018-08-09T10:11:11.271Z,3.05
2018-08-09T10:16:09.168Z,3.33
2018-08-09T10:21:06.670Z,2.95
2018-08-09T10:26:03.369Z,3.25
2018-08-09T10:31:00.474Z,3.62
2018-08-09T10:35:57.238Z,2.92
2018-08-09T10:40:54.689Z,2.60
2018-08-09T10:45:52.581Z,2.83
2018-08-09T10:50:49.923Z,3.10
2018-08-09T10:55:46.644Z,3.40
2018-08-09T11:00:43.575Z,3.05
2018-08-09T11:05:40.306Z,3.12
2018-08-09T11:10:37.290Z,2.98
2018-08-09T11:15:34.031Z,2.92
2018-08-09T11:20:31.618Z,2.83
2018-08-09T11:25:28.781Z,2.65
2018-08-09T11:30:25.497Z,2.80
2018-08-09T11:35:22.411Z,2.70
2018-08-09T11:40:19.169Z,2.77
2018-08-09T11:45:16.111Z,2.20
2018-08-09T11:50:12.856Z,2.58
2018-08-09T11:55:09.828Z,2.50
2018-08-09T12:00:07.065Z,2.85
2018-08-09T12:05:04.073Z,3.00
2018-08-09T12:10:01.037Z,3.05
2018-08-09T12:14:57.817Z,2.52
2018-08-09T12:19:55.138Z,3.05
2018-08-09T12:24:51.846Z,2.80
2018-08-09T12:29:48.792Z,2.55
2018-08-09T12:34:45.569Z,2.85
2018-08-09T12:39:42.611Z,2.60
2018-08-09T12:44:39.679Z,2.75
2018-08-09T12:49:36.474Z,2.72
2018-08-09T12:54:33.707Z,2.47
2018-08-09T12:59:30.473Z,2.47
2018-08-09T13:04:27.399Z,2.58
2018-08-09T13:09:24.379Z,2.67
2018-08-09T13:14:21.323Z,2.55
2018-08-09T13:19:18.055Z,2.72
2018-08-09T13:24:15.847Z,3.00
2018-08-09T13:29:12.543Z,2.72
2018-08-09T13:34:10.207Z,2.40
2018-08-09T13:39:07.924Z,2.40
2018-08-09T13:44:05.035Z,2.70
2018-08-09T13:49:02.128Z,2.60
2018-08-09T13:53:59.589Z,2.65
2018-08-09T13:58:56.266Z,2.87
2018-08-09T14:03:53.168Z,3.20
2018-08-09T14:08:49.937Z,2.52
2018-08-09T14:13:46.715Z,3.12
2018-08-09T14:18:43.681Z,3.20
2018-08-09T14:23:40.799Z,3.60
2018-08-09T14:28:37.916Z,3.60
2018-08-09T14:33:34.756Z,3.10
2018-08-09T14:38:31.845Z,3.00
2018-08-09T14:43:28.630Z,2.67
2018-08-09T14:48:25.979Z,3.08
2018-08-09T14:53:22.768Z,2.75
2018-08-09T14:58:19.693Z,3.00
2018-08-09T15:03:16.609Z,3.52
2018-08-09T15:08:13.373Z,3.30
2018-08-09T15:13:10.100Z,3.75
2018-08-09T15:18:07.858Z,3.20
2018-08-09T15:23:04.577Z,3.45
2018-08-09T15:28:01.670Z,3.55
2018-08-09T15:32:58.470Z,4.00
2018-08-09T15:37:55.644Z,4.92
2018-08-09T15:42:52.312Z,4.85
2018-08-09T15:47:49.443Z,4.50
2018-08-09T15:52:46.162Z,7.50
2018-08-09T15:57:43.069Z,5.65
2018-08-09T16:02:39.876Z,4.97
2018-08-09T16:07:36.496Z,4.60
2018-08-09T16:12:33.181Z,4.17
2018-08-09T16:17:30.165Z,4.12
2018-08-09T16:22:26.895Z,4.35
2018-08-09T16:27:24.176Z,4.25
2018-08-09T16:32:20.922Z,5.12
2018-08-09T16:37:18.219Z,3.83
2018-08-09T16:42:14.991Z,3.60
2018-08-09T16:47:11.924Z,3.75
2018-08-09T16:52:08.707Z,3.60
2018-08-09T16:57:05.959Z,3.30
2018-08-09T17:02:03.129Z,3.58
2018-08-09T17:07:00.912Z,3.00
2018-08-09T17:11:57.887Z,3.77
2018-08-09T17:16:54.941Z,3.12
2018-08-09T17:21:51.655Z,3.72
2018-08-09T17:26:48.526Z,3.77
2018-08-09T17:31:45.256Z,3.27
2018-08-09T17:36:42.304Z,3.35
2018-08-09T17:41:39.111Z,3.33
2018-08-09T17:46:36.096Z,3.90
2018-08-09T17:51:33.358Z,3.95
2018-08-09T17:56:30.119Z,6.03
2018-08-09T18:01:27.087Z,3.47
2018-08-09T18:06:23.620Z,3.65
2018-08-09T18:11:20.363Z,3.67
2018-08-09T18:16:17.544Z,3.98
2018-08-09T18:21:14.260Z,4.72
2018-08-09T18:26:11.274Z,3.60
2018-08-09T18:31:08.484Z,3.80
2018-08-09T18:36:05.276Z,3.40
2018-08-09T18:41:02.274Z,3.05
2018-08-09T18:45:59.345Z,3.42
2018-08-09T18:50:56.292Z,3.52
2018-08-09T18:55:53.017Z,3.45
2018-08-09T19:00:50.311Z,4.20
2018-08-09T19:05:47.036Z,3.30
2018-08-09T19:10:44.049Z,3.47
2018-08-09T19:15:40.805Z,3.83
2018-08-09T19:20:37.974Z,3.37
2018-08-09T19:25:34.691Z,5.75
2018-08-09T19:30:31.778Z,4.05
2018-08-09T19:35:28.482Z,3.52
2018-08-09T19:40:27.232Z,3.27
2018-08-09T19:45:24.289Z,3.40
2018-08-09T19:50:22.603Z,3.55
2018-08-09T19:55:20.984Z,3.77
2018-08-09T20:00:18.971Z,4.72
2018-08-09T20:05:16.149Z,3.50
2018-08-09T20:10:13.055Z,3.45
2018-08-09T20:15:12.242Z,3.27
2018-08-09T20:20:09.773Z,3.62
2018-08-09T20:25:07.585Z,3.37
2018-08-09T20:30:06.127Z,3.72
2018-08-09T20:35:03.388Z,3.52
2018-08-09T20:40:00.507Z,3.40
2018-08-09T20:44:57.244Z,3.27
2018-08-09T20:49:54.144Z,3.45
2018-08-09T20:54:50.904Z,3.62
2018-08-09T20:59:47.953Z,3.52
2018-08-09T21:04:44.921Z,3.65
2018-08-09T21:09:42.425Z,3.90
2018-08-09T21:14:39.661Z,3.52
2018-08-09T21:19:36.396Z,4.05
2018-08-09T21:24:33.481Z,3.62
2018-08-09T21:29:30.231Z,4.10
2018-08-09T21:34:27.201Z,3.35
2018-08-09T21:39:23.947Z,4.20
2018-08-09T21:44:20.992Z,3.80
2018-08-09T21:49:17.713Z,3.77
2018-08-09T21:54:14.649Z,3.77
2018-08-09T21:59:11.385Z,3.58
2018-08-09T22:04:08.497Z,3.75
2018-08-09T22:09:13.319Z,4.78
2018-08-09T22:14:16.535Z,3.95
2018-08-09T22:19:18.955Z,3.92
2018-08-09T22:24:15.752Z,3.70
2018-08-09T22:29:12.723Z,3.98
2018-08-09T22:34:09.462Z,4.15
2018-08-09T22:39:07.469Z,4.15
2018-08-09T22:44:04.618Z,3.65
2018-08-09T22:49:01.594Z,4.35
2018-08-09T22:53:58.371Z,3.98
2018-08-09T22:58:55.424Z,4.15
2018-08-09T23:03:52.256Z,4.40
2018-08-09T23:08:49.224Z,3.80
2018-08-09T23:13:46.002Z,3.67
2018-08-09T23:18:43.667Z,3.52
2018-08-09T23:23:40.444Z,3.67
2018-08-09T23:28:37.387Z,3.67
2018-08-09T23:33:34.246Z,4.00
2018-08-09T23:38:30.996Z,3.67
2018-08-09T23:43:27.989Z,3.20
2018-08-09T23:48:24.716Z,3.10
2018-08-09T23:53:21.833Z,3.65
2018-08-09T23:58:18.865Z,3.17
